Terminal Aerodrome Forecast
Issued by NWS

Home | Current Version | Previous Version | Text Only | Print | Product List | Glossary Off
Versions: 1 2 3 4 5 6 7 8 9 10 11 12 13 14

000
FTUS43 KOAX 261747
TAFCDR
TAF
KCDR 261747Z 2618/2718 VRB03KT P6SM FEW120
     FM262000 19007KT P6SM SCT070
     FM270300 16012KT P6SM SCT150=

USA.gov is the U.S. government's official web portal to all federal, state and local government web resources and services.